Time;durP1;ratioP1;P1;durP2;ratioP2;P2;SDS_P1;SDS_P2;PMS_P1;PMS_P2;Temp;Humidity;BMP_temperature;BMP_pressure;BME280_temperature;BME280_humidity;BME280_pressure;Samples;Min_cycle;Max_cycle;Signal;HPM_P1;HPM_P2
2022/12/20 00:00:51;;;;;;;2.80;2.60;;;8.50;99.90;;;;;;471847;252;28047;-71
2022/12/20 00:02:52;;;;;;;3.20;2.47;;;8.50;99.90;;;;;;471887;252;27913;-70
2022/12/20 00:04:53;;;;;;;2.60;2.40;;;8.50;99.90;;;;;;471870;252;27704;-71
2022/12/20 00:06:54;;;;;;;2.83;2.57;;;8.50;99.90;;;;;;471862;252;28066;-71
2022/12/20 00:08:56;;;;;;;2.53;2.30;;;8.50;99.90;;;;;;471774;252;27923;-71
2022/12/20 00:10:57;;;;;;;3.83;2.67;;;8.60;99.90;;;;;;471840;252;28014;-71
2022/12/20 00:12:58;;;;;;;4.43;2.40;;;8.60;99.90;;;;;;471816;252;27800;-72
2022/12/20 00:14:59;;;;;;;3.37;2.53;;;8.50;99.90;;;;;;471791;252;27981;-73
2022/12/20 00:17:01;;;;;;;2.87;2.17;;;8.60;99.90;;;;;;471850;252;28036;-72
2022/12/20 00:19:02;;;;;;;2.43;2.23;;;8.50;99.90;;;;;;471715;252;27450;-72
2022/12/20 00:21:03;;;;;;;3.60;2.83;;;8.50;99.90;;;;;;471844;252;27954;-72
2022/12/20 00:23:04;;;;;;;3.20;2.53;;;8.60;99.90;;;;;;471843;252;28012;-71
2022/12/20 00:25:06;;;;;;;3.00;2.50;;;8.50;99.90;;;;;;471797;252;27949;-72
2022/12/20 00:27:07;;;;;;;2.40;2.20;;;8.50;99.90;;;;;;471859;252;27956;-71
2022/12/20 00:29:08;;;;;;;2.87;2.33;;;8.50;99.90;;;;;;471807;252;28432;-71
2022/12/20 00:31:09;;;;;;;2.80;2.50;;;8.50;99.90;;;;;;471805;252;28276;-71
2022/12/20 00:33:11;;;;;;;4.73;3.00;;;8.40;99.90;;;;;;471814;252;28512;-72
2022/12/20 00:35:13;;;;;;;2.97;2.50;;;;;;;;;;471763;252;28051;-72
2022/12/20 00:37:14;;;;;;;5.03;2.27;;;8.60;99.90;;;;;;468708;252;27136;-72
2022/12/20 00:39:15;;;;;;;3.93;2.40;;;8.60;99.90;;;;;;475037;250;27856;-71
2022/12/20 00:41:16;;;;;;;3.30;2.20;;;8.60;99.90;;;;;;467899;253;27811;-71
2022/12/20 00:43:18;;;;;;;2.37;2.17;;;8.50;99.90;;;;;;475043;250;27923;-71
2022/12/20 00:45:19;;;;;;;3.57;2.70;;;8.50;99.90;;;;;;467894;253;27953;-72
2022/12/20 00:47:20;;;;;;;4.13;2.73;;;8.50;99.90;;;;;;475069;250;27987;-72
2022/12/20 00:49:21;;;;;;;2.63;2.40;;;8.50;99.90;;;;;;467961;253;27956;-71
2022/12/20 00:51:23;;;;;;;2.03;1.90;;;8.40;99.90;;;;;;475015;250;27671;-72
2022/12/20 00:53:24;;;;;;;2.33;2.17;;;8.40;99.90;;;;;;467989;253;27819;-71
2022/12/20 00:55:25;;;;;;;2.80;2.60;;;8.40;99.90;;;;;;475040;250;28101;-71
2022/12/20 00:57:26;;;;;;;2.47;2.27;;;8.40;99.90;;;;;;467989;253;28267;-71
2022/12/20 00:59:28;;;;;;;2.47;2.17;;;8.40;99.90;;;;;;475070;250;27929;-71
2022/12/20 01:01:29;;;;;;;2.60;2.40;;;8.40;99.90;;;;;;467953;253;27558;-72
2022/12/20 01:03:30;;;;;;;2.53;2.30;;;8.30;99.90;;;;;;475053;250;28377;-71
2022/12/20 01:05:31;;;;;;;3.27;2.97;;;8.40;99.90;;;;;;467934;253;28439;-71
2022/12/20 01:07:33;;;;;;;3.00;2.80;;;8.40;99.90;;;;;;475108;250;28035;-73
2022/12/20 01:09:34;;;;;;;2.60;2.40;;;8.40;99.90;;;;;;467948;253;28485;-72
2022/12/20 01:11:35;;;;;;;3.10;2.53;;;8.40;99.90;;;;;;474988;250;28456;-72
2022/12/20 01:13:36;;;;;;;2.90;2.70;;;8.40;99.90;;;;;;467970;251;28144;-71
2022/12/20 01:15:38;;;;;;;2.50;2.13;;;8.30;99.90;;;;;;475000;250;27909;-70
2022/12/20 01:17:39;;;;;;;2.50;2.30;;;8.40;99.90;;;;;;467933;253;27953;-72
2022/12/20 01:19:40;;;;;;;2.70;2.50;;;8.40;99.90;;;;;;475029;250;27948;-70
2022/12/20 01:21:44;;;;;;;2.77;2.57;;;8.50;99.90;;;;;;467899;253;28068;-71
2022/12/20 01:23:43;;;;;;;2.47;2.27;;;8.40;99.90;;;;;;474812;250;27947;-71
2022/12/20 01:25:44;;;;;;;3.90;2.30;;;8.20;99.90;;;;;;467879;253;28037;-71
2022/12/20 01:27:45;;;;;;;2.70;2.50;;;8.30;99.90;;;;;;475092;250;28196;-71
2022/12/20 01:29:46;;;;;;;2.80;2.60;;;8.30;99.90;;;;;;467984;253;28008;-71
2022/12/20 01:31:48;;;;;;;3.07;2.77;;;8.30;99.90;;;;;;475034;250;27532;-71
2022/12/20 01:33:49;;;;;;;2.83;2.63;;;8.20;99.90;;;;;;467993;253;27782;-73
2022/12/20 01:35:50;;;;;;;3.00;2.70;;;8.10;99.90;;;;;;475046;250;27850;-70
2022/12/20 01:37:51;;;;;;;2.50;2.30;;;8.20;99.90;;;;;;468022;253;28020;-71
2022/12/20 01:39:53;;;;;;;2.73;2.50;;;8.10;99.90;;;;;;475104;250;27859;-70
2022/12/20 01:41:54;;;;;;;2.97;2.73;;;8.10;99.90;;;;;;467951;253;28384;-70
2022/12/20 01:43:55;;;;;;;2.90;2.60;;;8.20;99.90;;;;;;475081;250;29185;-69
2022/12/20 01:45:56;;;;;;;4.23;2.90;;;8.20;99.90;;;;;;467975;253;29305;-72
2022/12/20 01:47:59;;;;;;;4.57;3.07;;;;;;;;;;475034;250;28374;-72
2022/12/20 01:50:01;;;;;;;2.90;2.70;;;;;;;;;;475040;250;27302;-72
2022/12/20 01:52:02;;;;;;;2.40;2.20;;;8.30;99.90;;;;;;465438;255;26405;-73
2022/12/20 01:54:03;;;;;;;4.73;3.10;;;8.40;99.90;;;;;;475060;250;27588;-71
2022/12/20 01:56:05;;;;;;;3.93;3.40;;;;;;;;;;467956;253;27937;-72
2022/12/20 01:58:06;;;;;;;3.53;2.83;;;8.50;99.90;;;;;;467930;254;28129;-72
2022/12/20 02:00:08;;;;;;;5.13;3.00;;;8.40;99.90;;;;;;475057;250;28171;-71
2022/12/20 02:02:09;;;;;;;3.20;3.00;;;8.40;99.90;;;;;;467897;253;27999;-71
2022/12/20 02:04:10;;;;;;;2.60;2.40;;;8.40;99.90;;;;;;475055;250;27891;-72
2022/12/20 02:06:11;;;;;;;2.93;2.73;;;8.30;99.90;;;;;;467971;253;28018;-71
2022/12/20 02:08:13;;;;;;;3.03;2.73;;;8.20;99.90;;;;;;474996;250;28037;-71
2022/12/20 02:10:14;;;;;;;3.40;2.77;;;8.20;99.90;;;;;;467968;253;27956;-71
2022/12/20 02:12:15;;;;;;;3.13;2.83;;;8.20;99.90;;;;;;475021;250;27784;-71
2022/12/20 02:14:16;;;;;;;3.07;2.80;;;8.10;99.90;;;;;;467961;253;28180;-72
2022/12/20 02:16:18;;;;;;;3.23;2.47;;;8.00;99.90;;;;;;475036;250;28136;-72
2022/12/20 02:18:19;;;;;;;2.50;2.30;;;7.90;99.90;;;;;;467920;253;28714;-71
2022/12/20 02:20:20;;;;;;;4.03;2.53;;;7.90;99.90;;;;;;475062;250;27610;-71
2022/12/20 02:22:21;;;;;;;2.77;2.57;;;7.90;99.90;;;;;;467952;253;27905;-71
2022/12/20 02:24:23;;;;;;;4.37;3.10;;;7.90;99.90;;;;;;475057;250;28015;-71
2022/12/20 02:26:24;;;;;;;3.33;3.03;;;7.90;99.90;;;;;;468004;253;28513;-70
2022/12/20 02:28:25;;;;;;;3.30;2.80;;;7.90;99.90;;;;;;475057;250;28458;-71
2022/12/20 02:30:26;;;;;;;3.93;3.30;;;7.90;99.90;;;;;;467973;253;30203;-71
2022/12/20 02:32:28;;;;;;;3.08;2.78;;;7.90;99.90;;;;;;474978;250;28406;-71
2022/12/20 02:34:29;;;;;;;5.37;3.40;;;7.90;99.90;;;;;;467984;253;27464;-71
2022/12/20 02:36:30;;;;;;;4.13;3.30;;;7.90;99.90;;;;;;475090;250;27421;-71
2022/12/20 02:38:31;;;;;;;3.67;3.33;;;7.90;99.90;;;;;;467955;253;27960;-71
2022/12/20 02:40:33;;;;;;;2.93;2.63;;;7.90;99.90;;;;;;475058;250;27815;-70
2022/12/20 02:42:34;;;;;;;4.90;2.67;;;8.00;99.90;;;;;;467928;253;28149;-71
2022/12/20 02:46:55;;;;;;;2.80;2.60;;;8.10;99.90;;;;;;467962;253;28778;-72
2022/12/20 02:48:56;;;;;;;5.00;2.83;;;8.00;99.90;;;;;;475010;250;27531;-70
2022/12/20 02:50:57;;;;;;;3.90;2.90;;;8.00;99.90;;;;;;467985;253;28257;-71
2022/12/20 02:52:58;;;;;;;3.17;2.90;;;8.00;99.90;;;;;;475018;250;27788;-70
2022/12/20 02:55:00;;;;;;;3.93;2.97;;;8.00;99.90;;;;;;467973;253;29406;-71
2022/12/20 02:57:01;;;;;;;5.50;3.20;;;8.00;99.90;;;;;;475042;250;29185;-71
2022/12/20 02:59:02;;;;;;;3.73;3.37;;;8.10;99.90;;;;;;467915;253;28903;-71
2022/12/20 03:01:03;;;;;;;3.00;2.70;;;8.10;99.90;;;;;;475072;250;29026;-71
2022/12/20 03:03:23;;;;;;;6.47;3.37;;;8.10;99.90;;;;;;468969;253;28806;-71
2022/12/20 03:05:24;;;;;;;3.17;2.87;;;8.20;99.90;;;;;;469088;253;28524;-71
2022/12/20 03:07:26;;;;;;;4.50;3.50;;;8.20;99.90;;;;;;469101;253;27474;-71
2022/12/20 03:09:27;;;;;;;4.07;3.15;;;8.20;99.90;;;;;;469034;253;27933;-71
2022/12/20 03:11:28;;;;;;;4.60;3.17;;;8.30;99.90;;;;;;469107;253;27968;-71
2022/12/20 03:13:29;;;;;;;3.40;2.60;;;8.20;99.90;;;;;;469050;253;28797;-71
2022/12/20 03:15:31;;;;;;;3.30;3.00;;;8.20;99.90;;;;;;469093;253;27632;-71
2022/12/20 03:17:32;;;;;;;3.57;2.73;;;8.20;99.90;;;;;;469115;253;27870;-71
2022/12/20 03:19:34;;;;;;;3.07;2.80;;;8.30;99.90;;;;;;469054;253;28917;-71
2022/12/20 03:21:34;;;;;;;3.10;2.90;;;8.30;99.90;;;;;;469105;253;27911;-71
2022/12/20 03:23:36;;;;;;;3.17;2.87;;;8.30;99.90;;;;;;469084;253;27707;-71
2022/12/20 03:25:37;;;;;;;4.03;3.20;;;8.30;99.90;;;;;;469126;253;27839;-71
2022/12/20 03:27:38;;;;;;;3.70;2.77;;;8.40;99.90;;;;;;469130;253;27993;-71
2022/12/20 03:29:40;;;;;;;3.10;2.80;;;8.40;99.90;;;;;;469072;253;28510;-72
2022/12/20 03:31:41;;;;;;;3.23;2.93;;;8.50;99.90;;;;;;469086;253;28749;-71
2022/12/20 03:33:42;;;;;;;3.13;2.83;;;8.50;99.90;;;;;;469007;253;28049;-71
2022/12/20 03:35:43;;;;;;;3.00;2.70;;;8.60;99.90;;;;;;469092;253;27772;-70
2022/12/20 03:37:44;;;;;;;2.60;2.40;;;8.60;99.90;;;;;;469092;253;27999;-71
2022/12/20 03:39:46;;;;;;;2.97;2.57;;;8.60;99.90;;;;;;469032;253;27906;-70
2022/12/20 03:41:47;;;;;;;3.73;2.57;;;8.60;99.90;;;;;;469073;253;28971;-70
2022/12/20 03:43:48;;;;;;;3.00;2.73;;;8.50;99.90;;;;;;469054;253;28760;-71
2022/12/20 03:45:50;;;;;;;3.57;2.63;;;8.50;99.90;;;;;;469055;253;28223;-70
2022/12/20 03:47:51;;;;;;;3.10;2.40;;;8.50;99.90;;;;;;469134;253;28407;-70
2022/12/20 03:49:52;;;;;;;3.27;2.97;;;8.50;99.90;;;;;;469094;253;28280;-70
2022/12/20 03:51:53;;;;;;;2.80;2.60;;;8.60;99.90;;;;;;469085;253;27964;-71
2022/12/20 03:53:54;;;;;;;2.77;2.57;;;8.60;99.90;;;;;;469114;253;28029;-71
2022/12/20 03:55:56;;;;;;;3.43;2.60;;;8.50;99.90;;;;;;469089;253;28007;-70
2022/12/20 03:57:57;;;;;;;3.47;2.80;;;8.50;99.90;;;;;;469141;253;27497;-71
2022/12/20 03:59:58;;;;;;;2.97;2.67;;;8.40;99.90;;;;;;469087;253;27949;-70
2022/12/20 04:01:59;;;;;;;3.00;2.60;;;8.40;99.90;;;;;;469112;253;28035;-71
2022/12/20 04:04:01;;;;;;;2.53;2.33;;;8.40;99.90;;;;;;469119;253;27981;-70
2022/12/20 04:06:02;;;;;;;2.47;2.27;;;8.40;99.90;;;;;;469077;253;27939;-70
2022/12/20 04:08:03;;;;;;;3.03;2.20;;;8.40;99.90;;;;;;469158;253;27984;-71
2022/12/20 04:10:04;;;;;;;2.63;2.43;;;8.40;99.90;;;;;;469088;253;27576;-71
2022/12/20 04:12:06;;;;;;;2.80;2.53;;;8.40;99.90;;;;;;469124;253;27972;-71
2022/12/20 04:14:07;;;;;;;2.40;2.20;;;8.20;99.90;;;;;;469143;253;28041;-70
2022/12/20 04:16:08;;;;;;;3.00;2.17;;;8.20;99.90;;;;;;469041;253;27962;-71
2022/12/20 04:18:09;;;;;;;2.70;2.50;;;8.20;99.90;;;;;;469140;253;27588;-72
2022/12/20 04:20:20;;;;;;;3.80;2.30;;;8.30;99.90;;;;;;469082;253;28020;-71
2022/12/20 04:22:21;;;;;;;3.25;2.30;;;8.30;99.90;;;;;;469185;253;27812;-71
2022/12/20 04:24:22;;;;;;;2.57;2.37;;;8.30;99.90;;;;;;469160;253;27566;-71
2022/12/20 04:26:24;;;;;;;2.60;2.30;;;8.30;99.90;;;;;;469090;253;27911;-71
2022/12/20 04:28:25;;;;;;;2.30;2.20;;;8.30;99.90;;;;;;469146;253;28432;-70
2022/12/20 04:30:26;;;;;;;3.83;2.63;;;8.30;99.90;;;;;;469083;253;28341;-70
2022/12/20 04:32:27;;;;;;;3.30;2.57;;;8.30;99.90;;;;;;469114;253;28416;-70
2022/12/20 04:34:29;;;;;;;2.10;2.00;;;8.30;99.90;;;;;;469122;253;28216;-70
2022/12/20 04:36:30;;;;;;;3.17;2.50;;;8.40;99.90;;;;;;469035;253;28014;-70
2022/12/20 04:38:31;;;;;;;3.40;2.63;;;8.50;99.90;;;;;;469088;253;28330;-71
2022/12/20 04:40:32;;;;;;;2.53;2.27;;;8.60;99.90;;;;;;469115;253;27965;-70
2022/12/20 04:42:34;;;;;;;2.50;2.30;;;8.60;99.90;;;;;;469122;253;27793;-71
2022/12/20 04:44:35;;;;;;;2.53;2.33;;;8.70;99.90;;;;;;469122;253;27962;-71
2022/12/20 04:46:36;;;;;;;4.90;2.87;;;8.60;99.90;;;;;;469057;253;27769;-71
2022/12/20 04:48:39;;;;;;;2.40;2.23;;;8.70;99.90;;;;;;469149;253;28027;-70
2022/12/20 04:50:39;;;;;;;2.40;2.20;;;8.70;99.90;;;;;;468959;253;27970;-71
2022/12/20 04:54:59;;;;;;;2.40;2.20;;;8.70;99.90;;;;;;469110;253;27845;-71
2022/12/20 04:57:00;;;;;;;2.47;2.27;;;8.80;99.90;;;;;;469093;253;27892;-71
2022/12/20 04:59:02;;;;;;;3.60;2.13;;;8.80;99.90;;;;;;469109;253;28325;-72
2022/12/20 05:01:03;;;;;;;2.20;2.00;;;8.90;99.90;;;;;;469014;253;28032;-71
2022/12/20 05:03:04;;;;;;;3.00;2.70;;;8.90;99.90;;;;;;469046;253;28429;-71
2022/12/20 05:05:05;;;;;;;2.37;2.17;;;8.90;99.90;;;;;;469044;253;28112;-71
2022/12/20 05:07:07;;;;;;;2.63;2.20;;;8.80;99.90;;;;;;468958;253;27888;-71
2022/12/20 05:09:08;;;;;;;2.50;2.30;;;8.80;99.90;;;;;;469078;253;28008;-72
2022/12/20 05:11:09;;;;;;;4.13;2.40;;;8.70;99.90;;;;;;469033;253;27979;-72
2022/12/20 05:13:10;;;;;;;2.93;2.47;;;8.80;99.90;;;;;;469101;253;27814;-72
2022/12/20 05:15:12;;;;;;;2.10;2.00;;;8.70;99.90;;;;;;469075;253;28089;-72
2022/12/20 05:17:13;;;;;;;2.87;2.50;;;8.70;99.90;;;;;;468991;253;27549;-72
2022/12/20 05:19:14;;;;;;;2.60;2.40;;;8.60;99.90;;;;;;469129;253;28053;-72
2022/12/20 05:28:14;;;;;;;2.67;2.43;;;8.60;99.90;;;;;;469104;253;27993;-72
2022/12/20 05:30:15;;;;;;;2.50;2.30;;;8.60;99.90;;;;;;469093;253;28021;-72
2022/12/20 05:32:16;;;;;;;3.33;2.80;;;8.60;99.90;;;;;;469038;253;28182;-72
2022/12/20 05:34:18;;;;;;;2.50;2.33;;;8.60;99.90;;;;;;469106;253;27977;-73
2022/12/20 05:36:19;;;;;;;3.03;2.30;;;8.70;99.90;;;;;;469085;253;28279;-72
2022/12/20 05:38:20;;;;;;;2.70;2.50;;;8.70;99.90;;;;;;469065;253;28557;-72
2022/12/20 05:40:21;;;;;;;3.20;2.40;;;8.70;99.90;;;;;;469094;253;28394;-72
2022/12/20 05:42:23;;;;;;;4.03;2.50;;;8.80;99.90;;;;;;469034;253;28495;-72
2022/12/20 05:44:24;;;;;;;3.73;2.83;;;8.70;99.90;;;;;;469100;253;28602;-72
2022/12/20 05:46:25;;;;;;;3.00;2.20;;;8.70;99.90;;;;;;469132;253;27887;-72
2022/12/20 05:48:26;;;;;;;3.03;2.20;;;8.70;99.90;;;;;;469078;253;27942;-72
2022/12/20 05:50:28;;;;;;;3.13;2.20;;;8.80;99.90;;;;;;469120;253;27985;-71
2022/12/20 05:52:29;;;;;;;2.70;2.50;;;8.80;99.90;;;;;;468954;253;28046;-72
2022/12/20 05:54:30;;;;;;;2.83;2.63;;;8.80;99.90;;;;;;469129;253;27720;-73
2022/12/20 05:56:31;;;;;;;3.60;2.57;;;8.80;99.90;;;;;;469121;253;27544;-72
2022/12/20 05:58:33;;;;;;;4.10;2.60;;;8.70;99.90;;;;;;469082;253;27950;-72
2022/12/20 06:00:34;;;;;;;4.27;2.30;;;8.70;99.90;;;;;;469087;253;27954;-72
2022/12/20 06:02:35;;;;;;;2.60;2.40;;;8.70;99.90;;;;;;469086;253;27960;-72
2022/12/20 06:04:37;;;;;;;2.70;2.50;;;8.70;99.90;;;;;;469133;253;27968;-72
2022/12/20 06:06:38;;;;;;;2.77;2.57;;;8.70;99.90;;;;;;469137;253;27931;-71
2022/12/20 06:08:39;;;;;;;2.90;2.60;;;8.70;99.90;;;;;;469109;253;28039;-71
2022/12/20 06:10:40;;;;;;;2.87;2.40;;;8.70;99.90;;;;;;469116;253;27969;-71
2022/12/20 06:12:41;;;;;;;3.40;2.77;;;8.80;99.90;;;;;;469104;253;27644;-72
2022/12/20 06:14:43;;;;;;;2.50;2.30;;;8.80;99.90;;;;;;469111;253;28055;-72
2022/12/20 06:16:44;;;;;;;2.63;2.43;;;8.80;99.90;;;;;;469148;253;28613;-72
2022/12/20 06:18:45;;;;;;;2.33;2.13;;;8.80;99.90;;;;;;469067;253;28186;-72
2022/12/20 06:20:46;;;;;;;2.90;2.70;;;8.90;99.90;;;;;;469135;253;29163;-71
2022/12/20 06:22:48;;;;;;;3.03;2.30;;;8.90;99.90;;;;;;469069;253;28478;-72
2022/12/20 06:24:49;;;;;;;3.03;2.67;;;8.80;99.90;;;;;;469140;253;28464;-72
2022/12/20 06:26:50;;;;;;;4.40;2.90;;;8.90;99.90;;;;;;469133;253;27970;-72
2022/12/20 06:28:53;;;;;;;2.93;2.63;;;8.90;99.90;;;;;;469086;253;28052;-72
2022/12/20 06:30:53;;;;;;;3.40;2.90;;;8.90;99.90;;;;;;469035;253;28065;-72
2022/12/20 06:32:54;;;;;;;3.83;3.07;;;8.80;99.90;;;;;;469071;253;28043;-72
2022/12/20 06:34:55;;;;;;;2.80;2.43;;;8.80;99.90;;;;;;469150;253;27905;-71
2022/12/20 06:36:56;;;;;;;3.30;3.00;;;8.70;99.90;;;;;;469077;253;27963;-71
2022/12/20 06:38:58;;;;;;;4.30;2.40;;;8.60;99.90;;;;;;469074;253;27930;-72
2022/12/20 06:40:59;;;;;;;2.70;2.50;;;8.70;99.90;;;;;;469026;251;27888;-72
2022/12/20 06:43:00;;;;;;;3.70;2.90;;;8.80;99.90;;;;;;469051;253;27934;-71
2022/12/20 06:45:01;;;;;;;2.90;2.60;;;8.80;99.90;;;;;;469065;253;27473;-72
2022/12/20 06:47:03;;;;;;;3.40;2.77;;;8.80;99.90;;;;;;469024;253;28344;-72
2022/12/20 06:49:04;;;;;;;3.43;2.30;;;8.80;99.90;;;;;;469093;253;28527;-71
2022/12/20 06:51:05;;;;;;;3.13;2.50;;;8.80;99.90;;;;;;469011;253;29274;-72
2022/12/20 06:53:06;;;;;;;2.10;1.90;;;8.80;99.90;;;;;;469062;253;28406;-71
2022/12/20 06:55:08;;;;;;;3.23;2.47;;;8.80;99.90;;;;;;469053;253;28551;-72
2022/12/20 06:57:09;;;;;;;3.13;2.80;;;8.80;99.90;;;;;;469032;253;28325;-72
2022/12/20 06:59:10;;;;;;;2.43;2.23;;;8.80;99.90;;;;;;469083;253;27978;-72
2022/12/20 07:01:11;;;;;;;2.20;2.00;;;8.70;99.90;;;;;;469008;253;27977;-72
2022/12/20 07:03:13;;;;;;;2.50;2.30;;;8.80;99.90;;;;;;468944;253;27936;-72
2022/12/20 07:05:14;;;;;;;2.33;2.17;;;8.70;99.90;;;;;;469118;253;27554;-72
2022/12/20 07:07:16;;;;;;;2.27;1.97;;;8.70;99.90;;;;;;469000;253;27555;-71
2022/12/20 07:09:16;;;;;;;2.10;2.00;;;8.70;99.90;;;;;;469122;253;28050;-71
2022/12/20 07:11:18;;;;;;;3.20;2.50;;;8.80;99.90;;;;;;469083;253;28037;-72
2022/12/20 07:13:19;;;;;;;2.50;2.30;;;8.80;99.90;;;;;;469006;253;27809;-72
2022/12/20 07:15:21;;;;;;;2.90;2.30;;;8.80;99.90;;;;;;469082;253;28087;-72
2022/12/20 07:17:21;;;;;;;2.33;2.23;;;8.80;99.90;;;;;;469072;253;27793;-72
2022/12/20 07:19:23;;;;;;;3.17;2.73;;;8.90;99.90;;;;;;469039;253;27727;-72
2022/12/20 07:21:24;;;;;;;4.90;2.20;;;8.90;99.90;;;;;;469056;253;27908;-72
2022/12/20 07:23:25;;;;;;;2.57;2.37;;;8.90;99.90;;;;;;469064;253;28073;-72
2022/12/20 07:25:26;;;;;;;2.80;2.03;;;9.00;99.90;;;;;;469075;253;28082;-72
2022/12/20 07:27:28;;;;;;;2.13;2.03;;;8.90;99.90;;;;;;469047;253;28364;-71
2022/12/20 07:29:29;;;;;;;2.20;2.00;;;9.00;99.90;;;;;;469039;253;28577;-72
2022/12/20 07:31:30;;;;;;;3.20;2.03;;;9.00;99.90;;;;;;471936;248;28492;-72
2022/12/20 07:33:31;;;;;;;2.73;2.10;;;9.00;99.90;;;;;;468256;250;28301;-71
2022/12/20 07:35:34;;;;;;;2.73;2.10;;;9.10;99.90;;;;;;475611;244;27868;-72
2022/12/20 07:37:35;;;;;;;2.03;1.93;;;9.10;99.90;;;;;;477647;249;27901;-72
2022/12/20 07:39:36;;;;;;;2.40;2.20;;;9.20;99.90;;;;;;477661;249;27870;-71
2022/12/20 07:41:37;;;;;;;2.50;2.30;;;9.10;99.90;;;;;;468629;253;28022;-72
2022/12/20 07:43:39;;;;;;;2.30;2.20;;;9.10;99.90;;;;;;467996;252;28456;-72
2022/12/20 07:45:40;;;;;;;3.00;2.40;;;9.10;99.90;;;;;;476086;249;28512;-72
2022/12/20 07:47:42;;;;;;;2.20;2.00;;;9.10;99.90;;;;;;469060;253;28233;-72
2022/12/20 07:49:42;;;;;;;2.27;2.10;;;9.10;99.90;;;;;;468437;252;28445;-72
2022/12/20 07:51:45;;;;;;;5.23;2.23;;;9.10;99.90;;;;;;477417;245;28723;-72
2022/12/20 07:53:46;;;;;;;2.17;2.00;;;9.10;99.90;;;;;;469054;249;27953;-72
2022/12/20 07:55:47;;;;;;;3.13;2.10;;;9.10;99.90;;;;;;477131;249;27963;-72
2022/12/20 07:57:48;;;;;;;2.13;1.97;;;9.10;99.90;;;;;;469062;253;28292;-71
2022/12/20 07:59:50;;;;;;;5.23;2.10;;;9.20;99.90;;;;;;477140;249;28511;-71
2022/12/20 08:01:51;;;;;;;3.80;2.63;;;9.10;99.90;;;;;;469073;253;28316;-72
2022/12/20 08:03:52;;;;;;;2.87;2.20;;;9.10;99.90;;;;;;477132;249;28526;-72
2022/12/20 08:05:54;;;;;;;5.20;2.63;;;9.10;99.90;;;;;;469110;253;28524;-71
2022/12/20 08:07:55;;;;;;;2.73;2.20;;;9.20;99.90;;;;;;477098;249;28537;-71
2022/12/20 08:09:56;;;;;;;3.70;2.43;;;9.20;99.90;;;;;;469094;253;27946;-71
2022/12/20 08:11:57;;;;;;;2.37;2.10;;;9.30;99.90;;;;;;469038;253;27942;-72
2022/12/20 08:13:58;;;;;;;2.60;2.00;;;9.30;99.90;;;;;;468932;253;28114;-71
2022/12/20 08:16:00;;;;;;;2.50;2.30;;;9.30;99.90;;;;;;468990;253;27478;-72
2022/12/20 08:18:01;;;;;;;2.47;2.27;;;9.40;99.90;;;;;;477436;245;27536;-72
2022/12/20 08:20:04;;;;;;;2.53;2.20;;;9.40;99.90;;;;;;470718;252;27773;-72
2022/12/20 08:22:04;;;;;;;2.30;1.83;;;9.40;99.90;;;;;;477004;247;28035;-72
2022/12/20 08:24:05;;;;;;;2.47;2.03;;;9.50;99.90;;;;;;470406;252;28065;-72
2022/12/20 08:26:06;;;;;;;3.03;2.03;;;9.50;99.90;;;;;;476957;249;27931;-72
2022/12/20 08:28:07;;;;;;;2.17;1.97;;;9.60;99.90;;;;;;470602;249;27688;-71
2022/12/20 08:30:09;;;;;;;2.50;2.30;;;9.60;99.90;;;;;;473607;249;27858;-71
2022/12/20 08:32:11;;;;;;;1.90;1.80;;;9.60;99.90;;;;;;469019;253;27462;-72
2022/12/20 08:34:11;;;;;;;2.43;2.23;;;9.60;99.90;;;;;;477007;249;28382;-72
2022/12/20 08:36:12;;;;;;;3.30;2.20;;;9.70;99.90;;;;;;469340;252;28418;-72
2022/12/20 08:38:13;;;;;;;2.80;2.23;;;9.80;99.90;;;;;;469358;252;28576;-71
2022/12/20 08:40:15;;;;;;;2.93;2.47;;;9.80;99.90;;;;;;475855;250;28327;-71
2022/12/20 08:42:16;;;;;;;3.77;2.30;;;9.80;99.90;;;;;;468704;253;28464;-72
2022/12/20 08:44:17;;;;;;;2.40;2.00;;;9.80;99.90;;;;;;475885;250;27876;-71
2022/12/20 08:46:18;;;;;;;2.77;1.90;;;9.90;99.90;;;;;;471178;245;27929;-71
2022/12/20 08:48:20;;;;;;;4.63;2.47;;;9.90;99.90;;;;;;469471;249;28057;-72
2022/12/20 08:50:21;;;;;;;2.63;2.27;;;10.00;99.90;;;;;;470045;252;27801;-71
2022/12/20 08:52:22;;;;;;;2.30;2.10;;;10.00;99.90;;;;;;476825;249;27536;-71
2022/12/20 08:54:23;;;;;;;3.03;2.70;;;10.10;99.90;;;;;;469057;253;27997;-71
2022/12/20 08:56:25;;;;;;;2.80;2.13;;;10.20;99.90;;;;;;477104;249;28591;-72
2022/12/20 08:58:26;;;;;;;2.33;2.13;;;10.30;99.90;;;;;;469098;253;28547;-72
2022/12/20 09:00:27;;;;;;;2.87;2.40;;;10.40;99.90;;;;;;477076;249;28438;-72
2022/12/20 09:02:28;;;;;;;2.27;2.07;;;10.50;99.90;;;;;;469024;253;28410;-71
2022/12/20 09:04:30;;;;;;;2.43;2.17;;;10.50;99.90;;;;;;477130;249;27945;-71
2022/12/20 09:06:31;;;;;;;2.43;2.23;;;10.50;99.90;;;;;;469005;253;28044;-71
2022/12/20 09:08:32;;;;;;;2.30;2.10;;;10.50;99.90;;;;;;477139;246;28080;-72
2022/12/20 09:10:33;;;;;;;1.80;1.70;;;10.60;99.90;;;;;;469065;253;28139;-71
2022/12/20 09:12:35;;;;;;;2.20;2.10;;;10.60;99.90;;;;;;477085;249;27768;-72
2022/12/20 09:14:36;;;;;;;3.07;2.00;;;10.60;99.90;;;;;;469016;253;28047;-71
2022/12/20 09:16:37;;;;;;;2.10;1.90;;;10.60;99.90;;;;;;477114;249;28021;-72
2022/12/20 09:18:38;;;;;;;1.97;1.83;;;10.60;99.90;;;;;;469032;253;28085;-72
2022/12/20 09:20:40;;;;;;;1.73;1.63;;;10.60;99.90;;;;;;477128;249;27991;-72
2022/12/20 09:22:41;;;;;;;1.80;1.70;;;10.60;99.90;;;;;;469035;253;28510;-72
2022/12/20 09:24:42;;;;;;;2.23;2.03;;;10.60;99.90;;;;;;469032;253;29194;-71
2022/12/20 09:26:43;;;;;;;2.17;2.03;;;10.70;99.90;;;;;;468005;253;28270;-72
2022/12/20 09:28:45;;;;;;;2.23;2.13;;;10.80;99.90;;;;;;474942;250;28147;-72
2022/12/20 09:30:46;;;;;;;3.30;2.20;;;10.80;99.90;;;;;;474979;250;27905;-71
2022/12/20 09:32:47;;;;;;;2.13;2.03;;;10.90;99.90;;;;;;470632;249;28028;-71
2022/12/20 09:34:48;;;;;;;1.97;1.80;;;10.90;99.90;;;;;;476733;249;28156;-71
2022/12/20 09:36:50;;;;;;;2.10;1.90;;;10.90;99.90;;;;;;477100;249;27831;-72
2022/12/20 09:38:51;;;;;;;1.87;1.77;;;10.90;99.90;;;;;;477030;249;28138;-72
2022/12/20 09:40:52;;;;;;;3.90;1.90;;;10.90;99.90;;;;;;477051;249;27961;-72
2022/12/20 09:42:53;;;;;;;1.83;1.73;;;10.90;99.90;;;;;;477110;249;28133;-71
2022/12/20 09:44:55;;;;;;;2.20;2.00;;;10.90;99.90;;;;;;477138;249;27932;-72
2022/12/20 09:46:56;;;;;;;2.10;1.90;;;10.90;99.90;;;;;;476864;249;28786;-71
2022/12/20 09:48:57;;;;;;;2.50;2.30;;;10.90;99.90;;;;;;477029;249;28637;-71
2022/12/20 09:50:58;;;;;;;3.23;2.40;;;10.90;99.90;;;;;;477136;249;28561;-71
2022/12/20 09:53:00;;;;;;;2.50;1.90;;;10.90;99.90;;;;;;477044;249;28433;-72
2022/12/20 09:55:01;;;;;;;2.57;2.10;;;10.90;99.90;;;;;;477084;249;27652;-72
2022/12/20 09:57:03;;;;;;;1.90;1.80;;;10.90;99.90;;;;;;467931;254;27923;-71
2022/12/20 09:59:03;;;;;;;2.20;2.03;;;10.90;99.90;;;;;;467997;254;27977;-72
2022/12/20 10:01:05;;;;;;;2.17;2.00;;;11.00;99.90;;;;;;464297;256;28089;-71
2022/12/20 10:03:06;;;;;;;2.00;1.90;;;11.10;99.90;;;;;;459795;258;27757;-70
2022/12/20 10:05:07;;;;;;;2.13;1.90;;;11.10;99.90;;;;;;472179;246;28481;-71
2022/12/20 10:07:08;;;;;;;4.10;3.03;;;11.10;99.90;;;;;;482388;246;28422;-71
2022/12/20 10:09:10;;;;;;;3.40;3.10;;;11.10;99.90;;;;;;482321;246;28871;-71
2022/12/20 10:11:11;;;;;;;3.67;2.80;;;11.10;99.90;;;;;;476776;246;27775;-71
2022/12/20 10:13:12;;;;;;;4.80;4.40;;;11.10;99.90;;;;;;475984;250;27903;-72
2022/12/20 10:15:14;;;;;;;5.60;4.97;;;11.10;99.90;;;;;;466761;255;27975;-72
2022/12/20 10:17:16;;;;;;;5.37;4.33;;;11.10;99.90;;;;;;475900;250;27903;-71
2022/12/20 10:19:16;;;;;;;4.40;4.10;;;11.10;99.90;;;;;;476004;250;27938;-72
2022/12/20 10:21:17;;;;;;;4.03;3.73;;;11.10;99.90;;;;;;475948;250;28104;-71
2022/12/20 10:23:22;;;;;;;4.60;4.20;;;11.10;99.90;;;;;;475970;250;28107;-71
2022/12/20 10:25:21;;;;;;;3.97;3.67;;;11.20;99.90;;;;;;475817;250;28618;-71
2022/12/20 10:27:21;;;;;;;3.90;3.60;;;11.20;99.90;;;;;;475808;250;28399;-70
2022/12/20 10:29:22;;;;;;;5.93;3.87;;;11.20;99.90;;;;;;476035;249;28722;-71
2022/12/20 10:31:24;;;;;;;5.03;4.63;;;11.20;99.90;;;;;;476022;250;28000;-71
2022/12/20 10:33:25;;;;;;;4.27;3.97;;;11.20;99.90;;;;;;476011;250;28018;-71
2022/12/20 10:35:26;;;;;;;5.07;4.73;;;11.20;99.90;;;;;;476053;250;28142;-71
2022/12/20 10:37:27;;;;;;;5.80;4.90;;;11.30;99.90;;;;;;475997;250;28239;-71
2022/12/20 10:39:28;;;;;;;5.17;4.60;;;11.30;99.90;;;;;;475994;250;28111;-71
2022/12/20 10:41:30;;;;;;;5.07;4.57;;;11.30;99.90;;;;;;476002;250;28290;-71
2022/12/20 10:43:31;;;;;;;5.20;4.80;;;11.30;99.90;;;;;;475960;250;28036;-71
2022/12/20 10:45:32;;;;;;;6.00;5.40;;;11.30;99.90;;;;;;476018;250;28174;-72
2022/12/20 10:47:34;;;;;;;6.00;5.40;;;11.30;99.90;;;;;;476019;250;28252;-72
2022/12/20 10:49:36;;;;;;;7.33;6.00;;;;;;;;;;475978;250;28848;-72
2022/12/20 10:51:37;;;;;;;8.53;5.43;;;11.40;99.90;;;;;;475933;249;27961;-71